sensor_id;sensor_type;location;lat;lon;timestamp;P1;durP1;ratioP1;P2;durP2;ratioP2
56413;SDS011;42318;48.452;19.526;2023-06-04T00:06:51;0.98;;;0.80;;
56413;SDS011;42318;48.452;19.526;2023-06-04T00:14:23;2.15;;;0.80;;
56413;SDS011;42318;48.452;19.526;2023-06-04T00:21:54;1.07;;;0.80;;
56413;SDS011;42318;48.452;19.526;2023-06-04T00:29:24;0.95;;;0.65;;
56413;SDS011;42318;48.452;19.526;2023-06-04T00:36:55;1.38;;;0.80;;
56413;SDS011;42318;48.452;19.526;2023-06-04T00:44:26;0.90;;;0.55;;
56413;SDS011;42318;48.452;19.526;2023-06-04T00:51:57;1.02;;;0.70;;
56413;SDS011;42318;48.452;19.526;2023-06-04T00:59:29;0.90;;;0.63;;
56413;SDS011;42318;48.452;19.526;2023-06-04T01:07:03;0.82;;;0.60;;
56413;SDS011;42318;48.452;19.526;2023-06-04T01:14:35;1.38;;;0.80;;
56413;SDS011;42318;48.452;19.526;2023-06-04T01:22:08;1.08;;;0.75;;
56413;SDS011;42318;48.452;19.526;2023-06-04T01:29:51;0.95;;;0.60;;
56413;SDS011;42318;48.452;19.526;2023-06-04T01:37:23;0.77;;;0.65;;
56413;SDS011;42318;48.452;19.526;2023-06-04T01:44:54;1.05;;;0.70;;
56413;SDS011;42318;48.452;19.526;2023-06-04T01:52:24;1.27;;;0.80;;
56413;SDS011;42318;48.452;19.526;2023-06-04T01:59:55;0.90;;;0.73;;
56413;SDS011;42318;48.452;19.526;2023-06-04T02:07:26;0.75;;;0.60;;
56413;SDS011;42318;48.452;19.526;2023-06-04T02:14:57;1.80;;;0.73;;
56413;SDS011;42318;48.452;19.526;2023-06-04T02:22:28;1.00;;;0.60;;
56413;SDS011;42318;48.452;19.526;2023-06-04T02:29:59;0.80;;;0.60;;
56413;SDS011;42318;48.452;19.526;2023-06-04T02:37:29;1.27;;;0.77;;
56413;SDS011;42318;48.452;19.526;2023-06-04T02:45:00;0.80;;;0.60;;
56413;SDS011;42318;48.452;19.526;2023-06-04T02:52:31;1.10;;;0.80;;
56413;SDS011;42318;48.452;19.526;2023-06-04T03:00:03;1.20;;;0.63;;
56413;SDS011;42318;48.452;19.526;2023-06-04T03:07:44;0.68;;;0.57;;
56413;SDS011;42318;48.452;19.526;2023-06-04T03:22:46;0.90;;;0.63;;
56413;SDS011;42318;48.452;19.526;2023-06-04T03:33:41;1.13;;;0.70;;
56413;SDS011;42318;48.452;19.526;2023-06-04T03:41:12;1.02;;;0.80;;
56413;SDS011;42318;48.452;19.526;2023-06-04T03:48:43;1.00;;;0.50;;
56413;SDS011;42318;48.452;19.526;2023-06-04T03:56:14;1.00;;;0.85;;
56413;SDS011;42318;48.452;19.526;2023-06-04T04:03:45;0.77;;;0.50;;
56413;SDS011;42318;48.452;19.526;2023-06-04T04:11:19;0.85;;;0.70;;
56413;SDS011;42318;48.452;19.526;2023-06-04T04:18:50;1.33;;;0.63;;
56413;SDS011;42318;48.452;19.526;2023-06-04T04:26:21;1.17;;;0.60;;
56413;SDS011;42318;48.452;19.526;2023-06-04T04:33:52;1.75;;;0.90;;
56413;SDS011;42318;48.452;19.526;2023-06-04T04:48:56;1.48;;;0.50;;
56413;SDS011;42318;48.452;19.526;2023-06-04T04:56:27;1.13;;;0.70;;
56413;SDS011;42318;48.452;19.526;2023-06-04T05:03:59;0.60;;;0.50;;
56413;SDS011;42318;48.452;19.526;2023-06-04T05:11:29;0.73;;;0.60;;
56413;SDS011;42318;48.452;19.526;2023-06-04T05:19:00;0.63;;;0.52;;
56413;SDS011;42318;48.452;19.526;2023-06-04T05:26:32;1.13;;;0.80;;
56413;SDS011;42318;48.452;19.526;2023-06-04T05:34:03;1.00;;;0.90;;
56413;SDS011;42318;48.452;19.526;2023-06-04T05:41:36;0.50;;;0.50;;
56413;SDS011;42318;48.452;19.526;2023-06-04T05:49:07;0.90;;;0.70;;
56413;SDS011;42318;48.452;19.526;2023-06-04T05:56:38;1.27;;;0.68;;
56413;SDS011;42318;48.452;19.526;2023-06-04T06:04:09;0.88;;;0.52;;
56413;SDS011;42318;48.452;19.526;2023-06-04T06:11:41;1.27;;;0.90;;
56413;SDS011;42318;48.452;19.526;2023-06-04T06:19:11;1.02;;;0.70;;
56413;SDS011;42318;48.452;19.526;2023-06-04T06:26:42;1.00;;;0.73;;
56413;SDS011;42318;48.452;19.526;2023-06-04T06:34:14;1.10;;;0.77;;
56413;SDS011;42318;48.452;19.526;2023-06-04T06:41:45;0.95;;;0.77;;
56413;SDS011;42318;48.452;19.526;2023-06-04T06:49:16;0.75;;;0.68;;
56413;SDS011;42318;48.452;19.526;2023-06-04T06:56:50;0.80;;;0.60;;
56413;SDS011;42318;48.452;19.526;2023-06-04T07:04:21;0.43;;;0.43;;
56413;SDS011;42318;48.452;19.526;2023-06-04T07:11:52;1.17;;;0.80;;
56413;SDS011;42318;48.452;19.526;2023-06-04T07:19:23;0.80;;;0.47;;
56413;SDS011;42318;48.452;19.526;2023-06-04T07:26:54;1.25;;;0.63;;
56413;SDS011;42318;48.452;19.526;2023-06-04T07:34:25;0.98;;;0.77;;
56413;SDS011;42318;48.452;19.526;2023-06-04T07:41:56;0.70;;;0.50;;
56413;SDS011;42318;48.452;19.526;2023-06-04T07:49:27;1.35;;;0.80;;
56413;SDS011;42318;48.452;19.526;2023-06-04T07:56:57;0.80;;;0.63;;
56413;SDS011;42318;48.452;19.526;2023-06-04T08:04:28;0.60;;;0.50;;
56413;SDS011;42318;48.452;19.526;2023-06-04T08:11:59;0.88;;;0.70;;
56413;SDS011;42318;48.452;19.526;2023-06-04T08:19:30;1.08;;;0.63;;
56413;SDS011;42318;48.452;19.526;2023-06-04T08:27:01;0.85;;;0.60;;
56413;SDS011;42318;48.452;19.526;2023-06-04T08:34:32;0.70;;;0.57;;
56413;SDS011;42318;48.452;19.526;2023-06-04T08:42:48;0.80;;;0.52;;
56413;SDS011;42318;48.452;19.526;2023-06-04T08:49:59;0.88;;;0.60;;
56413;SDS011;42318;48.452;19.526;2023-06-04T08:57:31;0.50;;;0.50;;
56413;SDS011;42318;48.452;19.526;2023-06-04T09:05:02;1.13;;;0.70;;
56413;SDS011;42318;48.452;19.526;2023-06-04T09:12:35;1.08;;;0.75;;
56413;SDS011;42318;48.452;19.526;2023-06-04T09:20:20;0.60;;;0.50;;
56413;SDS011;42318;48.452;19.526;2023-06-04T09:27:52;0.68;;;0.60;;
56413;SDS011;42318;48.452;19.526;2023-06-04T09:35:36;0.52;;;0.52;;
56413;SDS011;42318;48.452;19.526;2023-06-04T09:43:07;1.10;;;0.75;;
56413;SDS011;42318;48.452;19.526;2023-06-04T09:50:38;0.85;;;0.50;;
56413;SDS011;42318;48.452;19.526;2023-06-04T09:58:10;0.80;;;0.63;;
56413;SDS011;42318;48.452;19.526;2023-06-04T10:05:42;0.70;;;0.60;;
56413;SDS011;42318;48.452;19.526;2023-06-04T10:13:14;0.60;;;0.50;;
56413;SDS011;42318;48.452;19.526;2023-06-04T10:20:48;1.05;;;0.70;;
56413;SDS011;42318;48.452;19.526;2023-06-04T10:28:20;0.87;;;0.57;;
56413;SDS011;42318;48.452;19.526;2023-06-04T10:35:53;0.80;;;0.60;;
56413;SDS011;42318;48.452;19.526;2023-06-04T10:43:29;0.77;;;0.60;;
56413;SDS011;42318;48.452;19.526;2023-06-04T10:51:00;0.88;;;0.60;;
56413;SDS011;42318;48.452;19.526;2023-06-04T10:58:32;1.40;;;0.55;;
56413;SDS011;42318;48.452;19.526;2023-06-04T11:06:14;0.70;;;0.57;;
56413;SDS011;42318;48.452;19.526;2023-06-04T11:13:47;1.23;;;0.60;;
56413;SDS011;42318;48.452;19.526;2023-06-04T11:21:17;1.98;;;0.70;;
56413;SDS011;42318;48.452;19.526;2023-06-04T11:28:48;0.85;;;0.63;;
56413;SDS011;42318;48.452;19.526;2023-06-04T11:36:26;0.90;;;0.70;;
56413;SDS011;42318;48.452;19.526;2023-06-04T11:44:01;3.15;;;1.60;;
56413;SDS011;42318;48.452;19.526;2023-06-04T11:51:34;1.95;;;0.60;;
56413;SDS011;42318;48.452;19.526;2023-06-04T11:59:06;0.70;;;0.60;;
56413;SDS011;42318;48.452;19.526;2023-06-04T12:06:37;2.53;;;0.93;;
56413;SDS011;42318;48.452;19.526;2023-06-04T12:14:14;4.47;;;0.75;;
56413;SDS011;42318;48.452;19.526;2023-06-04T12:22:03;3.13;;;0.68;;
56413;SDS011;42318;48.452;19.526;2023-06-04T12:29:38;1.38;;;0.80;;
56413;SDS011;42318;48.452;19.526;2023-06-04T12:37:08;1.73;;;0.50;;
56413;SDS011;42318;48.452;19.526;2023-06-04T12:44:39;1.33;;;0.68;;
56413;SDS011;42318;48.452;19.526;2023-06-04T12:52:10;1.63;;;0.60;;
56413;SDS011;42318;48.452;19.526;2023-06-04T12:59:41;1.02;;;0.52;;
56413;SDS011;42318;48.452;19.526;2023-06-04T13:07:12;1.85;;;0.80;;
56413;SDS011;42318;48.452;19.526;2023-06-04T13:14:43;1.42;;;0.77;;
56413;SDS011;42318;48.452;19.526;2023-06-04T13:22:14;4.45;;;1.70;;
56413;SDS011;42318;48.452;19.526;2023-06-04T13:29:45;1.77;;;1.23;;
56413;SDS011;42318;48.452;19.526;2023-06-04T13:37:16;2.00;;;1.20;;
56413;SDS011;42318;48.452;19.526;2023-06-04T13:44:47;1.42;;;1.02;;
56413;SDS011;42318;48.452;19.526;2023-06-04T13:52:17;3.22;;;1.20;;
56413;SDS011;42318;48.452;19.526;2023-06-04T13:59:49;1.90;;;1.20;;
56413;SDS011;42318;48.452;19.526;2023-06-04T14:07:19;3.72;;;1.55;;
56413;SDS011;42318;48.452;19.526;2023-06-04T14:14:50;17.85;;;5.38;;
56413;SDS011;42318;48.452;19.526;2023-06-04T14:22:21;5.63;;;3.47;;
56413;SDS011;42318;48.452;19.526;2023-06-04T14:29:52;6.78;;;2.70;;
56413;SDS011;42318;48.452;19.526;2023-06-04T14:37:23;4.90;;;2.35;;
56413;SDS011;42318;48.452;19.526;2023-06-04T14:44:53;5.88;;;2.20;;
56413;SDS011;42318;48.452;19.526;2023-06-04T14:52:25;8.60;;;2.40;;
56413;SDS011;42318;48.452;19.526;2023-06-04T14:59:56;4.35;;;2.30;;
56413;SDS011;42318;48.452;19.526;2023-06-04T15:07:26;5.15;;;2.38;;
56413;SDS011;42318;48.452;19.526;2023-06-04T15:14:57;3.42;;;2.38;;
56413;SDS011;42318;48.452;19.526;2023-06-04T15:22:29;4.20;;;1.90;;
56413;SDS011;42318;48.452;19.526;2023-06-04T15:30:00;5.50;;;2.05;;
56413;SDS011;42318;48.452;19.526;2023-06-04T15:37:32;3.95;;;2.13;;
56413;SDS011;42318;48.452;19.526;2023-06-04T15:45:03;3.17;;;1.95;;
56413;SDS011;42318;48.452;19.526;2023-06-04T15:52:34;4.93;;;2.50;;
56413;SDS011;42318;48.452;19.526;2023-06-04T16:00:04;3.92;;;2.20;;
56413;SDS011;42318;48.452;19.526;2023-06-04T16:07:36;2.73;;;2.13;;
56413;SDS011;42318;48.452;19.526;2023-06-04T16:15:07;4.60;;;2.05;;
56413;SDS011;42318;48.452;19.526;2023-06-04T16:22:38;3.38;;;2.10;;
56413;SDS011;42318;48.452;19.526;2023-06-04T16:30:09;3.50;;;2.25;;
56413;SDS011;42318;48.452;19.526;2023-06-04T16:37:40;3.20;;;2.00;;
56413;SDS011;42318;48.452;19.526;2023-06-04T16:45:11;5.40;;;3.20;;
56413;SDS011;42318;48.452;19.526;2023-06-04T16:52:42;5.22;;;2.97;;
56413;SDS011;42318;48.452;19.526;2023-06-04T17:00:13;4.97;;;3.30;;
56413;SDS011;42318;48.452;19.526;2023-06-04T17:07:44;4.15;;;2.75;;
56413;SDS011;42318;48.452;19.526;2023-06-04T17:15:15;3.67;;;2.45;;
56413;SDS011;42318;48.452;19.526;2023-06-04T17:22:46;5.50;;;2.47;;
56413;SDS011;42318;48.452;19.526;2023-06-04T17:30:19;4.35;;;2.28;;
56413;SDS011;42318;48.452;19.526;2023-06-04T17:37:51;4.55;;;2.42;;
56413;SDS011;42318;48.452;19.526;2023-06-04T17:45:22;3.00;;;1.95;;
56413;SDS011;42318;48.452;19.526;2023-06-04T17:52:53;4.75;;;2.47;;
56413;SDS011;42318;48.452;19.526;2023-06-04T18:00:24;4.05;;;2.28;;
56413;SDS011;42318;48.452;19.526;2023-06-04T18:07:54;4.15;;;2.13;;
56413;SDS011;42318;48.452;19.526;2023-06-04T18:15:25;5.15;;;2.67;;
56413;SDS011;42318;48.452;19.526;2023-06-04T18:22:56;5.07;;;2.13;;
56413;SDS011;42318;48.452;19.526;2023-06-04T18:30:27;3.65;;;2.00;;
56413;SDS011;42318;48.452;19.526;2023-06-04T18:37:58;4.05;;;2.30;;
56413;SDS011;42318;48.452;19.526;2023-06-04T18:45:29;3.20;;;2.13;;
56413;SDS011;42318;48.452;19.526;2023-06-04T18:53:00;3.17;;;2.10;;
56413;SDS011;42318;48.452;19.526;2023-06-04T19:00:32;11.50;;;2.53;;
56413;SDS011;42318;48.452;19.526;2023-06-04T19:08:02;3.63;;;2.30;;
56413;SDS011;42318;48.452;19.526;2023-06-04T19:15:33;4.82;;;2.45;;
56413;SDS011;42318;48.452;19.526;2023-06-04T19:23:04;3.88;;;2.10;;
56413;SDS011;42318;48.452;19.526;2023-06-04T19:30:35;3.58;;;1.90;;
56413;SDS011;42318;48.452;19.526;2023-06-04T19:38:06;3.65;;;2.17;;
56413;SDS011;42318;48.452;19.526;2023-06-04T19:45:37;3.25;;;1.77;;
56413;SDS011;42318;48.452;19.526;2023-06-04T19:53:08;2.63;;;2.08;;
56413;SDS011;42318;48.452;19.526;2023-06-04T20:00:38;2.80;;;1.90;;
56413;SDS011;42318;48.452;19.526;2023-06-04T20:08:09;2.83;;;1.95;;
56413;SDS011;42318;48.452;19.526;2023-06-04T20:15:40;2.60;;;1.90;;
56413;SDS011;42318;48.452;19.526;2023-06-04T20:23:11;3.05;;;2.08;;
56413;SDS011;42318;48.452;19.526;2023-06-04T20:30:42;4.25;;;2.10;;
56413;SDS011;42318;48.452;19.526;2023-06-04T20:38:13;3.50;;;2.33;;
56413;SDS011;42318;48.452;19.526;2023-06-04T20:45:44;4.95;;;1.92;;
56413;SDS011;42318;48.452;19.526;2023-06-04T20:53:15;3.30;;;1.80;;
56413;SDS011;42318;48.452;19.526;2023-06-04T21:00:46;2.70;;;1.80;;
56413;SDS011;42318;48.452;19.526;2023-06-04T21:08:16;3.15;;;2.28;;
56413;SDS011;42318;48.452;19.526;2023-06-04T21:15:47;4.35;;;2.15;;
56413;SDS011;42318;48.452;19.526;2023-06-04T21:23:18;3.45;;;1.92;;
56413;SDS011;42318;48.452;19.526;2023-06-04T21:30:49;2.05;;;1.73;;
56413;SDS011;42318;48.452;19.526;2023-06-04T21:38:19;2.10;;;1.70;;
56413;SDS011;42318;48.452;19.526;2023-06-04T21:45:50;3.28;;;1.83;;
56413;SDS011;42318;48.452;19.526;2023-06-04T21:53:21;2.58;;;1.85;;
56413;SDS011;42318;48.452;19.526;2023-06-04T22:00:52;2.25;;;1.58;;
56413;SDS011;42318;48.452;19.526;2023-06-04T22:08:22;1.95;;;1.50;;
56413;SDS011;42318;48.452;19.526;2023-06-04T22:15:53;2.35;;;1.75;;
56413;SDS011;42318;48.452;19.526;2023-06-04T22:23:24;3.03;;;2.03;;
56413;SDS011;42318;48.452;19.526;2023-06-04T22:30:55;2.72;;;1.95;;
56413;SDS011;42318;48.452;19.526;2023-06-04T22:38:26;3.40;;;2.00;;
56413;SDS011;42318;48.452;19.526;2023-06-04T22:45:57;2.38;;;1.77;;
56413;SDS011;42318;48.452;19.526;2023-06-04T22:53:27;2.38;;;1.80;;
56413;SDS011;42318;48.452;19.526;2023-06-04T23:00:59;2.80;;;1.90;;
56413;SDS011;42318;48.452;19.526;2023-06-04T23:08:30;1.98;;;1.45;;
56413;SDS011;42318;48.452;19.526;2023-06-04T23:16:00;2.40;;;1.75;;
56413;SDS011;42318;48.452;19.526;2023-06-04T23:23:31;3.78;;;2.10;;
56413;SDS011;42318;48.452;19.526;2023-06-04T23:31:02;3.15;;;1.90;;
56413;SDS011;42318;48.452;19.526;2023-06-04T23:38:33;3.38;;;2.25;;
56413;SDS011;42318;48.452;19.526;2023-06-04T23:46:04;2.42;;;1.83;;
56413;SDS011;42318;48.452;19.526;2023-06-04T23:53:35;3.08;;;2.08;;
